createdAt,value
2018-01-27T00:00:41.288Z,206.50
2018-01-27T00:01:41.285Z,172.00
2018-01-27T00:02:41.281Z,142.10
2018-01-27T00:03:41.276Z,139.90
2018-01-27T00:04:41.271Z,165.20
2018-01-27T00:05:41.270Z,141.20
2018-01-27T00:06:41.258Z,143.70
2018-01-27T00:07:41.261Z,152.90
2018-01-27T00:08:41.255Z,161.00
2018-01-27T00:09:41.253Z,157.90
2018-01-27T00:10:41.245Z,153.90
2018-01-27T00:11:41.242Z,147.10
2018-01-27T00:12:41.243Z,135.20
2018-01-27T00:13:41.242Z,129.80
2018-01-27T00:14:41.230Z,118.70
2018-01-27T00:15:41.228Z,112.50
2018-01-27T00:16:41.218Z,118.50
2018-01-27T00:17:41.217Z,120.40
2018-01-27T00:18:41.212Z,118.20
2018-01-27T00:19:41.207Z,132.10
2018-01-27T00:20:41.204Z,138.00
2018-01-27T00:21:41.199Z,128.60
2018-01-27T00:22:41.198Z,131.20
2018-01-27T00:23:41.188Z,152.00
2018-01-27T00:24:41.188Z,124.80
2018-01-27T00:25:41.181Z,167.60
2018-01-27T00:26:41.176Z,117.60
2018-01-27T00:27:41.174Z,127.30
2018-01-27T00:28:41.168Z,177.60
2018-01-27T00:29:41.172Z,155.90
2018-01-27T00:30:41.160Z,135.80
2018-01-27T00:31:41.156Z,123.20
2018-01-27T00:32:41.153Z,120.40
2018-01-27T00:33:41.145Z,117.40
2018-01-27T00:34:41.139Z,130.00
2018-01-27T00:35:41.137Z,149.70
2018-01-27T00:36:41.134Z,139.30
2018-01-27T00:37:41.130Z,124.50
2018-01-27T00:38:41.122Z,154.30
2018-01-27T00:39:41.125Z,133.30
2018-01-27T00:40:41.119Z,123.50
2018-01-27T00:41:41.117Z,120.50
2018-01-27T00:42:41.108Z,116.50
2018-01-27T00:43:41.098Z,112.60
2018-01-27T00:44:41.099Z,160.90
2018-01-27T00:45:41.096Z,148.90
2018-01-27T00:46:41.091Z,138.80
2018-01-27T00:47:41.085Z,149.60
2018-01-27T00:48:41.082Z,112.30
2018-01-27T00:49:41.082Z,122.50
2018-01-27T00:50:41.075Z,150.30
2018-01-27T00:51:41.068Z,160.80
2018-01-27T00:52:41.064Z,124.20
2018-01-27T00:53:41.058Z,108.40
2018-01-27T00:54:41.055Z,133.00
2018-01-27T00:55:41.051Z,137.30
2018-01-27T00:56:41.047Z,134.80
2018-01-27T00:57:41.042Z,181.20
2018-01-27T00:58:41.040Z,158.30
2018-01-27T00:59:41.034Z,176.00
2018-01-27T01:00:41.029Z,153.20
2018-01-27T01:01:41.025Z,158.40
2018-01-27T01:02:41.016Z,180.90
2018-01-27T01:03:41.017Z,174.10
2018-01-27T01:04:41.008Z,160.70
2018-01-27T01:05:41.007Z,175.40
2018-01-27T01:06:41.004Z,175.00
2018-01-27T01:07:41.000Z,148.10
2018-01-27T01:08:40.994Z,177.20
2018-01-27T01:09:40.988Z,152.10
2018-01-27T01:10:40.989Z,163.80
2018-01-27T01:11:40.976Z,164.40
2018-01-27T01:12:40.976Z,153.70
2018-01-27T01:13:40.975Z,156.50
2018-01-27T01:14:40.967Z,129.10
2018-01-27T01:15:40.964Z,133.40
2018-01-27T01:16:40.959Z,131.70
2018-01-27T01:17:40.959Z,133.10
2018-01-27T01:18:40.951Z,126.40
2018-01-27T01:19:40.946Z,128.90
2018-01-27T01:20:40.943Z,146.40
2018-01-27T01:21:40.937Z,167.30
2018-01-27T01:22:40.934Z,179.40
2018-01-27T01:23:40.930Z,151.90
2018-01-27T01:24:40.924Z,149.40
2018-01-27T01:25:40.922Z,151.70
2018-01-27T01:26:40.922Z,122.00
2018-01-27T01:27:40.918Z,123.30
2018-01-27T01:28:40.959Z,138.00
2018-01-27T01:29:40.901Z,152.50
2018-01-27T01:30:40.895Z,155.50
2018-01-27T01:31:40.894Z,167.00
2018-01-27T01:32:40.889Z,177.60
2018-01-27T01:33:40.884Z,170.90
2018-01-27T01:34:40.882Z,151.90
2018-01-27T01:35:40.877Z,148.60
2018-01-27T01:36:40.872Z,160.30
2018-01-27T01:37:40.864Z,155.10
2018-01-27T01:38:40.864Z,157.30
2018-01-27T01:39:40.864Z,169.90
2018-01-27T01:40:40.854Z,183.00
2018-01-27T01:41:40.850Z,138.60
2018-01-27T01:42:40.844Z,142.30
2018-01-27T01:43:40.842Z,126.10
2018-01-27T01:44:40.839Z,121.90
2018-01-27T01:45:40.838Z,121.50
2018-01-27T01:46:40.827Z,159.80
2018-01-27T01:47:40.821Z,162.10
2018-01-27T01:48:40.821Z,152.40
2018-01-27T01:49:40.814Z,147.30
2018-01-27T01:50:40.812Z,149.10
2018-01-27T01:51:40.807Z,135.90
2018-01-27T01:52:40.799Z,154.30
2018-01-27T01:53:40.795Z,131.70
2018-01-27T01:54:40.790Z,128.90
2018-01-27T01:55:40.787Z,134.20
2018-01-27T01:56:40.789Z,143.80
2018-01-27T01:57:40.773Z,156.70
2018-01-27T01:58:40.773Z,145.50
2018-01-27T01:59:40.770Z,143.60
2018-01-27T02:00:40.762Z,165.40
2018-01-27T02:01:40.760Z,179.10
2018-01-27T02:02:40.756Z,158.20
2018-01-27T02:03:40.751Z,137.30
2018-01-27T02:04:40.746Z,126.00
2018-01-27T02:05:40.741Z,135.10
2018-01-27T02:06:40.737Z,140.00
2018-01-27T02:07:40.730Z,134.70
2018-01-27T02:08:40.727Z,137.40
2018-01-27T02:09:40.725Z,152.40
2018-01-27T02:10:40.720Z,144.90
2018-01-27T02:11:40.715Z,135.30
2018-01-27T02:12:40.717Z,134.40
2018-01-27T02:13:40.709Z,173.10
2018-01-27T02:14:40.697Z,162.50
2018-01-27T02:15:40.701Z,145.30
2018-01-27T02:16:40.691Z,147.60
2018-01-27T02:17:40.689Z,151.00
2018-01-27T02:18:40.683Z,195.40
2018-01-27T02:19:40.677Z,141.50
2018-01-27T02:20:40.673Z,153.40
2018-01-27T02:21:40.674Z,137.80
2018-01-27T02:22:40.668Z,133.10
2018-01-27T02:23:40.660Z,136.50
2018-01-27T02:24:40.661Z,119.30
2018-01-27T02:25:40.652Z,130.60
2018-01-27T02:26:40.647Z,129.20
2018-01-27T02:27:40.644Z,141.00
2018-01-27T02:28:40.637Z,154.30
2018-01-27T02:29:40.633Z,143.30
2018-01-27T02:30:40.633Z,134.70
2018-01-27T02:31:40.622Z,133.40
2018-01-27T02:32:40.618Z,134.20
2018-01-27T02:33:40.613Z,133.20
2018-01-27T02:34:40.608Z,135.90
2018-01-27T02:35:40.605Z,140.40
2018-01-27T02:36:40.600Z,149.90
2018-01-27T02:37:40.595Z,127.00
2018-01-27T02:38:40.600Z,132.40
2018-01-27T02:39:40.590Z,133.10
2018-01-27T02:40:40.580Z,140.20
2018-01-27T02:41:40.575Z,135.80
2018-01-27T02:42:40.564Z,151.80
2018-01-27T02:43:40.568Z,142.40
2018-01-27T02:44:40.558Z,145.60
2018-01-27T02:45:40.555Z,144.90
2018-01-27T02:46:40.549Z,146.30
2018-01-27T02:47:40.545Z,164.10
2018-01-27T02:48:40.542Z,157.00
2018-01-27T02:49:40.538Z,130.20
2018-01-27T02:50:40.530Z,146.40
2018-01-27T02:51:40.521Z,151.70
2018-01-27T02:52:40.521Z,159.20
2018-01-27T02:53:40.532Z,143.10
2018-01-27T02:54:40.509Z,155.00
2018-01-27T02:55:40.505Z,148.10
2018-01-27T02:56:40.500Z,146.70
2018-01-27T02:57:40.494Z,156.80
2018-01-27T02:58:40.491Z,162.90
2018-01-27T02:59:40.487Z,146.20
2018-01-27T03:00:40.477Z,152.10
2018-01-27T03:01:40.474Z,149.00
2018-01-27T03:02:40.468Z,156.20
2018-01-27T03:03:40.463Z,146.80
2018-01-27T03:04:40.459Z,166.70
2018-01-27T03:05:40.458Z,158.30
2018-01-27T03:06:40.453Z,201.10
2018-01-27T03:07:40.442Z,190.90
2018-01-27T03:08:40.441Z,196.40
2018-01-27T03:09:40.434Z,168.60
2018-01-27T03:10:40.427Z,161.50
2018-01-27T03:11:40.423Z,169.80
2018-01-27T03:12:40.419Z,155.20
2018-01-27T03:13:40.412Z,133.10
2018-01-27T03:14:40.407Z,135.20
2018-01-27T03:15:40.408Z,135.20
2018-01-27T03:16:40.393Z,137.60
2018-01-27T03:17:40.394Z,149.10
2018-01-27T03:18:40.388Z,201.20
2018-01-27T03:19:40.382Z,206.10
2018-01-27T03:20:40.379Z,159.10
2018-01-27T03:21:40.374Z,256.40
2018-01-27T03:22:40.367Z,229.00
2018-01-27T03:23:40.363Z,184.90
2018-01-27T03:24:40.363Z,193.70
2018-01-27T03:25:40.353Z,200.00
2018-01-27T03:26:40.344Z,176.40
2018-01-27T03:27:40.344Z,173.90
2018-01-27T03:28:40.337Z,198.40
2018-01-27T03:29:40.335Z,167.00
2018-01-27T03:30:40.326Z,176.90
2018-01-27T03:31:40.324Z,150.40
2018-01-27T03:32:40.317Z,166.90
2018-01-27T03:33:40.314Z,154.40
2018-01-27T03:34:40.305Z,159.20
2018-01-27T03:35:40.300Z,214.20
2018-01-27T03:36:40.301Z,192.80
2018-01-27T03:37:40.297Z,227.90
2018-01-27T03:38:40.287Z,223.20
2018-01-27T03:39:40.283Z,213.10
2018-01-27T03:40:40.283Z,223.50
2018-01-27T03:41:40.273Z,247.40
2018-01-27T03:42:40.268Z,184.20
2018-01-27T03:43:40.261Z,257.80
2018-01-27T03:44:40.255Z,177.20
2018-01-27T03:45:40.251Z,177.50
2018-01-27T03:46:40.246Z,175.40
2018-01-27T03:47:40.242Z,190.60
2018-01-27T03:48:40.237Z,238.90
2018-01-27T03:49:40.242Z,291.80
2018-01-27T03:50:40.226Z,222.80
2018-01-27T03:51:40.221Z,197.70
2018-01-27T03:52:40.213Z,242.10
2018-01-27T03:53:40.208Z,214.10
2018-01-27T03:54:40.204Z,204.30
2018-01-27T03:55:40.201Z,196.70
2018-01-27T03:56:40.200Z,240.30
2018-01-27T03:57:40.192Z,232.30
2018-01-27T03:58:40.190Z,179.60
2018-01-27T03:59:40.181Z,257.40
2018-01-27T04:00:40.175Z,260.40
2018-01-27T04:01:40.169Z,211.10
2018-01-27T04:02:40.164Z,199.00
2018-01-27T04:03:40.168Z,194.40
2018-01-27T04:04:40.161Z,212.60
2018-01-27T04:05:40.154Z,232.00
2018-01-27T04:06:40.150Z,338.10
2018-01-27T04:07:40.141Z,386.30
2018-01-27T04:08:40.136Z,337.70
2018-01-27T04:09:40.128Z,368.40
2018-01-27T04:10:40.125Z,194.40
2018-01-27T04:11:40.120Z,197.50
2018-01-27T04:12:40.121Z,204.80
2018-01-27T04:13:40.109Z,295.10
2018-01-27T04:14:40.108Z,278.70
2018-01-27T04:15:40.106Z,300.20
2018-01-27T04:16:40.095Z,310.00
2018-01-27T04:17:40.092Z,253.60
2018-01-27T04:18:40.082Z,269.00
2018-01-27T04:19:40.078Z,257.60
2018-01-27T04:20:40.073Z,259.40
2018-01-27T04:21:40.070Z,331.50
2018-01-27T04:22:40.064Z,295.40
2018-01-27T04:23:40.060Z,370.30
2018-01-27T04:24:40.057Z,208.70
2018-01-27T04:25:40.050Z,222.50
2018-01-27T04:26:40.048Z,290.50
2018-01-27T04:27:40.037Z,236.90
2018-01-27T04:28:40.089Z,221.60
2018-01-27T04:29:40.029Z,197.30
2018-01-27T04:30:40.024Z,199.30
2018-01-27T04:31:40.019Z,247.20
2018-01-27T04:32:40.017Z,239.70
2018-01-27T04:33:40.009Z,223.60
2018-01-27T04:34:40.004Z,192.20
2018-01-27T04:35:39.998Z,183.80
2018-01-27T04:36:39.992Z,207.00
2018-01-27T04:37:39.988Z,206.40
2018-01-27T04:38:39.984Z,229.40
2018-01-27T04:39:39.980Z,206.20
2018-01-27T04:40:39.973Z,175.70
2018-01-27T04:41:39.976Z,165.40
2018-01-27T04:42:39.965Z,125.30
2018-01-27T04:43:39.957Z,139.40
2018-01-27T04:44:39.952Z,161.70
2018-01-27T04:45:39.947Z,171.40
2018-01-27T04:46:39.943Z,154.40
2018-01-27T04:47:39.937Z,150.50
2018-01-27T04:48:39.932Z,166.80
2018-01-27T04:49:39.928Z,136.20
2018-01-27T04:50:39.924Z,148.90
2018-01-27T04:51:39.917Z,158.70
2018-01-27T04:52:39.912Z,152.20
2018-01-27T04:53:39.903Z,154.20
2018-01-27T04:54:39.903Z,169.10
2018-01-27T04:55:39.901Z,134.80
2018-01-27T04:56:39.891Z,155.30
2018-01-27T04:57:39.891Z,150.90
2018-01-27T04:58:39.885Z,144.50
2018-01-27T04:59:39.878Z,133.70
2018-01-27T05:00:39.874Z,136.30
2018-01-27T05:01:39.867Z,143.30
2018-01-27T05:02:39.862Z,138.20
2018-01-27T05:03:39.857Z,128.60
2018-01-27T05:04:39.867Z,168.60
2018-01-27T05:05:39.847Z,146.50
2018-01-27T05:06:39.843Z,125.40
2018-01-27T05:07:39.843Z,130.80
2018-01-27T05:08:39.830Z,171.60
2018-01-27T05:09:39.828Z,144.20
2018-01-27T05:10:39.824Z,185.30
2018-01-27T05:11:39.814Z,163.70
2018-01-27T05:12:39.812Z,132.20
2018-01-27T05:13:39.812Z,123.70
2018-01-27T05:14:39.800Z,132.80
2018-01-27T05:15:39.798Z,106.00
2018-01-27T05:16:39.791Z,123.90
2018-01-27T05:17:39.789Z,112.70
2018-01-27T05:18:39.780Z,142.80
2018-01-27T05:19:39.773Z,126.40
2018-01-27T05:20:39.770Z,130.40
2018-01-27T05:21:39.766Z,144.30
2018-01-27T05:22:39.766Z,124.20
2018-01-27T05:23:39.755Z,115.40
2018-01-27T05:24:39.751Z,123.10
2018-01-27T05:25:39.745Z,130.10
2018-01-27T05:26:39.737Z,116.00
2018-01-27T05:27:39.735Z,117.30
2018-01-27T05:28:39.727Z,111.70
2018-01-27T05:29:39.726Z,115.60
2018-01-27T05:30:39.717Z,126.90
2018-01-27T05:31:39.716Z,130.00
2018-01-27T05:32:39.707Z,120.60
2018-01-27T05:33:39.702Z,116.50
2018-01-27T05:34:39.751Z,131.70
2018-01-27T05:35:39.701Z,133.40
2018-01-27T05:36:39.682Z,132.60
2018-01-27T05:37:39.679Z,144.10
2018-01-27T05:38:39.676Z,109.70
2018-01-27T05:39:39.669Z,162.60
2018-01-27T05:40:39.672Z,126.00
2018-01-27T05:41:39.661Z,124.40
2018-01-27T05:42:39.653Z,117.80
2018-01-27T05:43:39.649Z,115.90
2018-01-27T05:44:39.653Z,124.40
2018-01-27T05:45:39.637Z,116.00
2018-01-27T05:46:39.631Z,115.80
2018-01-27T05:47:39.626Z,130.10
2018-01-27T05:48:39.621Z,133.30
2018-01-27T05:49:39.617Z,135.70
2018-01-27T05:50:39.611Z,131.20
2018-01-27T05:51:39.607Z,169.30
2018-01-27T05:52:39.603Z,171.00
2018-01-27T05:53:39.592Z,170.80
2018-01-27T05:54:39.589Z,172.10
2018-01-27T05:55:39.584Z,162.90
2018-01-27T05:56:39.583Z,161.40
2018-01-27T05:57:39.572Z,197.60
2018-01-27T05:58:39.573Z,157.40
2018-01-27T05:59:39.560Z,189.00
2018-01-27T06:00:39.556Z,201.20
2018-01-27T06:01:39.552Z,182.70
2018-01-27T06:02:39.547Z,200.20
2018-01-27T06:03:39.542Z,182.10
2018-01-27T06:04:39.536Z,163.70
2018-01-27T06:05:39.533Z,147.40
2018-01-27T06:06:39.525Z,144.70
2018-01-27T06:07:39.521Z,115.10
2018-01-27T06:08:39.513Z,128.00
2018-01-27T06:09:39.512Z,115.40
2018-01-27T06:10:39.500Z,115.60
2018-01-27T06:11:39.500Z,117.50
2018-01-27T06:12:39.494Z,122.50
2018-01-27T06:13:39.494Z,131.90
2018-01-27T06:14:39.484Z,116.80
2018-01-27T06:15:39.479Z,115.20
2018-01-27T06:16:39.474Z,114.50
2018-01-27T06:17:39.467Z,129.30
2018-01-27T06:18:39.489Z,128.10
2018-01-27T06:19:39.453Z,140.90
2018-01-27T06:20:39.452Z,170.80
2018-01-27T06:21:39.447Z,138.40
2018-01-27T06:22:39.442Z,154.60
2018-01-27T06:23:39.435Z,153.00
2018-01-27T06:24:39.438Z,123.30
2018-01-27T06:25:39.425Z,146.60
2018-01-27T06:26:39.419Z,139.90
2018-01-27T06:27:39.410Z,135.00
2018-01-27T06:28:39.409Z,128.60
2018-01-27T06:29:39.409Z,127.50
2018-01-27T06:30:39.399Z,135.80
2018-01-27T06:31:39.392Z,133.50
2018-01-27T06:32:39.390Z,127.60
2018-01-27T06:33:39.385Z,120.60
2018-01-27T06:34:39.378Z,125.90
2018-01-27T06:35:39.372Z,125.50
2018-01-27T06:36:39.365Z,130.70
2018-01-27T06:37:39.369Z,130.00
2018-01-27T06:38:39.357Z,139.50
2018-01-27T06:39:39.352Z,138.20
2018-01-27T06:40:39.379Z,115.00
2018-01-27T06:41:39.347Z,135.00
2018-01-27T06:42:39.338Z,125.30
2018-01-27T06:43:39.330Z,118.70
2018-01-27T06:44:39.327Z,119.80
2018-01-27T06:45:39.321Z,132.80
2018-01-27T06:46:39.316Z,162.00
2018-01-27T06:47:39.311Z,125.60
2018-01-27T06:48:39.307Z,136.20
2018-01-27T06:49:39.301Z,131.10
2018-01-27T06:50:39.295Z,128.10
2018-01-27T06:51:39.294Z,153.60
2018-01-27T06:52:39.287Z,143.90
2018-01-27T06:53:39.279Z,130.50
2018-01-27T06:54:39.275Z,127.50
2018-01-27T06:55:39.267Z,134.70
2018-01-27T06:56:39.279Z,132.10
2018-01-27T06:57:39.264Z,128.30
2018-01-27T06:58:39.256Z,141.10
2018-01-27T06:59:39.251Z,148.10
2018-01-27T07:00:39.246Z,133.00
2018-01-27T07:01:39.239Z,130.20
2018-01-27T07:02:39.233Z,127.80
2018-01-27T07:03:39.229Z,143.50
2018-01-27T07:04:39.220Z,130.30
2018-01-27T07:05:39.217Z,125.20
2018-01-27T07:06:39.211Z,150.70
2018-01-27T07:07:39.214Z,139.20
2018-01-27T07:08:39.200Z,138.60
2018-01-27T07:09:39.199Z,141.10
2018-01-27T07:10:39.185Z,145.40
2018-01-27T07:11:39.185Z,141.70
2018-01-27T07:12:39.179Z,126.60
2018-01-27T07:13:39.175Z,126.10
2018-01-27T07:14:39.168Z,116.90
2018-01-27T07:15:39.167Z,124.70
2018-01-27T07:16:39.158Z,111.30
2018-01-27T07:17:39.154Z,110.60
2018-01-27T07:18:39.152Z,112.80
2018-01-27T07:19:39.140Z,112.50
2018-01-27T07:20:39.139Z,103.80
2018-01-27T07:21:39.136Z,97.20
2018-01-27T07:22:39.129Z,96.70
2018-01-27T07:23:39.122Z,122.80
2018-01-27T07:24:39.124Z,107.90
2018-01-27T07:25:39.113Z,115.20
2018-01-27T07:26:39.107Z,106.50
2018-01-27T07:27:39.107Z,111.00
2018-01-27T07:28:39.095Z,99.40
2018-01-27T07:29:39.092Z,100.80
2018-01-27T07:30:39.086Z,106.90
2018-01-27T07:31:39.086Z,97.50
2018-01-27T07:32:39.075Z,87.10
2018-01-27T07:33:39.080Z,86.30
2018-01-27T07:34:39.064Z,94.40
2018-01-27T07:35:39.060Z,94.00
2018-01-27T07:36:39.049Z,84.90
2018-01-27T07:37:39.049Z,106.00
2018-01-27T07:38:39.043Z,94.70
2018-01-27T07:39:39.038Z,89.90
2018-01-27T07:40:39.033Z,103.40
2018-01-27T07:41:39.033Z,90.50
2018-01-27T07:42:39.023Z,100.80
2018-01-27T07:43:39.016Z,87.80
2018-01-27T07:44:39.007Z,90.30
2018-01-27T07:45:39.005Z,95.20
2018-01-27T07:46:39.001Z,88.40
2018-01-27T07:47:38.995Z,73.00
2018-01-27T07:48:38.991Z,74.90
2018-01-27T07:49:38.988Z,77.90
2018-01-27T07:50:38.978Z,68.70
2018-01-27T07:51:38.974Z,73.20
2018-01-27T07:52:38.968Z,68.10
2018-01-27T07:53:38.961Z,66.60
2018-01-27T07:54:38.957Z,67.90
2018-01-27T07:55:38.953Z,65.40
2018-01-27T07:56:38.947Z,68.10
2018-01-27T07:57:38.941Z,65.00
2018-01-27T07:58:38.968Z,69.00
2018-01-27T07:59:38.931Z,69.50
2018-01-27T08:00:38.927Z,69.40
2018-01-27T08:01:38.920Z,70.60
2018-01-27T08:02:38.914Z,63.90
2018-01-27T08:03:38.908Z,58.10
2018-01-27T08:04:38.903Z,61.80
2018-01-27T08:05:38.898Z,63.70
2018-01-27T08:06:38.892Z,65.50
2018-01-27T08:07:38.887Z,61.30
2018-01-27T08:08:38.885Z,66.00
2018-01-27T08:09:38.877Z,69.10
2018-01-27T08:10:38.869Z,70.90
2018-01-27T08:11:38.867Z,66.70
2018-01-27T08:12:38.861Z,66.50
2018-01-27T08:13:38.855Z,66.50
2018-01-27T08:14:38.849Z,60.50
2018-01-27T08:15:38.842Z,60.60
2018-01-27T08:16:38.839Z,59.20
2018-01-27T08:17:38.833Z,64.60
2018-01-27T08:18:38.828Z,57.30
2018-01-27T08:19:38.822Z,56.90
2018-01-27T08:20:38.820Z,56.80
2018-01-27T08:21:38.813Z,57.20
2018-01-27T08:22:38.807Z,59.40
2018-01-27T08:23:38.801Z,55.80
2018-01-27T08:24:38.801Z,65.80
2018-01-27T08:25:38.793Z,56.90
2018-01-27T08:26:38.785Z,57.70
2018-01-27T08:27:38.790Z,55.50
2018-01-27T08:28:38.776Z,50.50
2018-01-27T08:29:38.775Z,50.10
2018-01-27T08:30:38.764Z,50.30
2018-01-27T08:31:38.761Z,48.40
2018-01-27T08:32:38.756Z,50.50
2018-01-27T08:33:38.754Z,52.70
2018-01-27T08:34:38.745Z,48.90
2018-01-27T08:35:38.740Z,52.50
2018-01-27T08:36:38.731Z,45.80
2018-01-27T08:37:38.729Z,51.00
2018-01-27T08:38:38.723Z,43.70
2018-01-27T08:39:38.722Z,44.20
2018-01-27T08:40:38.714Z,41.80
2018-01-27T08:41:38.710Z,41.30
2018-01-27T08:42:38.705Z,40.90
2018-01-27T08:43:38.698Z,45.40
2018-01-27T08:44:38.691Z,42.50
2018-01-27T08:45:38.687Z,44.90
2018-01-27T08:46:38.687Z,43.20
2018-01-27T08:47:38.683Z,42.10
2018-01-27T08:48:38.669Z,41.60
2018-01-27T08:49:38.670Z,38.00
2018-01-27T08:50:38.665Z,37.70
2018-01-27T08:51:38.658Z,40.50
2018-01-27T08:52:38.663Z,41.30
2018-01-27T08:53:38.647Z,36.70
2018-01-27T08:54:38.643Z,35.40
2018-01-27T08:55:38.640Z,34.20
2018-01-27T08:56:38.634Z,35.60
2018-01-27T08:57:38.629Z,33.30
2018-01-27T08:58:38.624Z,35.10
2018-01-27T08:59:38.619Z,38.20
2018-01-27T09:00:38.616Z,33.30
2018-01-27T09:01:38.609Z,34.30
2018-01-27T09:02:38.604Z,37.30
2018-01-27T09:03:38.599Z,34.20
2018-01-27T09:04:38.600Z,34.20
2018-01-27T09:05:38.588Z,30.90
2018-01-27T09:06:38.584Z,36.50
2018-01-27T09:07:38.583Z,34.60
2018-01-27T09:08:38.575Z,32.00
2018-01-27T09:09:38.572Z,35.90
2018-01-27T09:10:38.568Z,33.10
2018-01-27T09:11:38.561Z,36.20
2018-01-27T09:12:38.587Z,31.80
2018-01-27T09:13:38.551Z,32.50
2018-01-27T09:14:38.544Z,32.20
2018-01-27T09:15:38.541Z,31.00
2018-01-27T09:16:38.536Z,30.00
2018-01-27T09:17:38.532Z,34.30
2018-01-27T09:18:38.528Z,31.90
2018-01-27T09:19:38.524Z,29.00
2018-01-27T09:20:38.518Z,27.70
2018-01-27T09:21:38.512Z,31.80
2018-01-27T09:22:38.507Z,31.70
2018-01-27T09:23:38.502Z,32.30
2018-01-27T09:24:38.502Z,28.40
2018-01-27T09:25:38.495Z,32.10
2018-01-27T09:26:38.489Z,31.80
2018-01-27T09:27:38.485Z,29.50
2018-01-27T09:28:38.486Z,29.60
2018-01-27T09:29:38.476Z,32.60
2018-01-27T09:30:38.470Z,28.30
2018-01-27T09:31:38.469Z,29.30
2018-01-27T09:32:38.463Z,31.80
2018-01-27T09:33:38.456Z,30.10
2018-01-27T09:34:38.454Z,29.10
2018-01-27T09:35:38.449Z,25.60
2018-01-27T09:36:38.443Z,28.00
2018-01-27T09:37:38.440Z,29.30
2018-01-27T09:38:38.434Z,27.10
2018-01-27T09:39:38.430Z,32.00
2018-01-27T09:40:38.424Z,25.10
2018-01-27T09:41:38.419Z,26.50
2018-01-27T09:42:38.452Z,27.20
2018-01-27T09:43:38.414Z,27.70
2018-01-27T09:44:38.407Z,25.90
2018-01-27T09:45:38.403Z,25.00
2018-01-27T09:46:38.399Z,26.40
2018-01-27T09:47:38.392Z,28.00
2018-01-27T09:48:38.388Z,26.40
2018-01-27T09:49:38.384Z,28.00
2018-01-27T09:50:38.380Z,26.70
2018-01-27T09:51:38.376Z,25.90
2018-01-27T09:52:38.378Z,23.00
2018-01-27T09:53:38.369Z,25.20
2018-01-27T09:54:38.365Z,22.70
2018-01-27T09:55:38.358Z,25.60
2018-01-27T09:56:38.351Z,24.30
2018-01-27T09:57:38.353Z,25.30
2018-01-27T09:58:38.343Z,23.80
2018-01-27T09:59:38.337Z,23.20
2018-01-27T10:00:38.336Z,23.40
2018-01-27T10:01:38.333Z,24.30
2018-01-27T10:02:38.330Z,24.50
2018-01-27T10:03:38.320Z,23.50
2018-01-27T10:04:38.317Z,24.80
2018-01-27T10:05:38.315Z,27.10
2018-01-27T10:06:38.307Z,22.40
2018-01-27T10:07:38.304Z,25.30
2018-01-27T10:08:38.299Z,23.40
2018-01-27T10:09:38.296Z,21.90
2018-01-27T10:10:38.290Z,23.60
2018-01-27T10:11:38.284Z,25.30
2018-01-27T10:12:38.279Z,24.00
2018-01-27T10:13:38.308Z,23.50
2018-01-27T10:14:38.270Z,21.20
2018-01-27T10:15:38.268Z,22.80
2018-01-27T10:16:38.264Z,25.10
2018-01-27T10:17:38.258Z,23.70
2018-01-27T10:18:38.254Z,23.70
2018-01-27T10:19:38.250Z,22.80
2018-01-27T10:20:38.245Z,27.50
2018-01-27T10:21:38.248Z,22.10
2018-01-27T10:22:38.235Z,26.60
2018-01-27T10:23:38.237Z,21.80
2018-01-27T10:24:38.228Z,25.90
2018-01-27T10:25:38.224Z,24.00
2018-01-27T10:26:38.221Z,22.90
2018-01-27T10:27:38.214Z,24.30
2018-01-27T10:28:38.211Z,21.90
2018-01-27T10:29:38.206Z,24.50
2018-01-27T10:30:38.202Z,23.50
2018-01-27T10:31:38.201Z,25.40
2018-01-27T10:32:38.194Z,23.60
2018-01-27T10:33:38.189Z,25.30
2018-01-27T10:34:38.185Z,20.90
2018-01-27T10:35:38.180Z,26.60
2018-01-27T10:36:38.176Z,24.00
2018-01-27T10:37:38.183Z,23.30
2018-01-27T10:38:38.167Z,23.30
2018-01-27T10:39:38.164Z,20.50
2018-01-27T10:40:38.162Z,22.30
2018-01-27T10:41:38.156Z,21.20
2018-01-27T10:42:38.150Z,21.10
2018-01-27T10:43:38.147Z,20.60
2018-01-27T10:44:38.142Z,24.00
2018-01-27T10:45:38.139Z,23.60
2018-01-27T10:46:38.136Z,21.70
2018-01-27T10:47:38.132Z,22.70
2018-01-27T10:48:38.132Z,21.20
2018-01-27T10:49:38.121Z,20.70
2018-01-27T10:50:38.116Z,22.30
2018-01-27T10:51:38.115Z,22.40
2018-01-27T10:52:38.104Z,21.90
2018-01-27T10:53:38.101Z,23.10
2018-01-27T10:54:38.097Z,24.10
2018-01-27T10:55:38.098Z,23.20
2018-01-27T10:56:38.090Z,22.80
2018-01-27T10:57:38.083Z,23.50
2018-01-27T10:58:38.080Z,23.70
2018-01-27T10:59:38.074Z,24.10
2018-01-27T11:00:38.074Z,25.60
2018-01-27T11:01:38.067Z,25.80
2018-01-27T11:02:38.065Z,25.60
2018-01-27T11:03:38.056Z,25.00
2018-01-27T11:04:38.052Z,23.00
2018-01-27T11:05:38.047Z,26.30
2018-01-27T11:06:38.040Z,22.20
2018-01-27T11:07:38.038Z,24.30
2018-01-27T11:08:38.137Z,26.10
2018-01-27T11:09:38.029Z,26.00
2018-01-27T11:10:38.022Z,25.40
2018-01-27T11:11:38.018Z,22.70
2018-01-27T11:12:38.013Z,24.00
2018-01-27T11:13:38.009Z,24.00
2018-01-27T11:14:38.008Z,24.70
2018-01-27T11:15:37.997Z,24.20
2018-01-27T11:16:37.994Z,23.60
2018-01-27T11:17:37.990Z,28.30
2018-01-27T11:18:37.983Z,25.50
2018-01-27T11:19:37.980Z,26.90
2018-01-27T11:20:37.974Z,24.80
2018-01-27T11:21:37.971Z,25.70
2018-01-27T11:22:37.964Z,27.80
2018-01-27T11:23:37.961Z,25.20
2018-01-27T11:24:37.954Z,24.00
2018-01-27T11:25:37.949Z,26.40
2018-01-27T11:26:37.946Z,25.60
2018-01-27T11:27:37.938Z,24.00
2018-01-27T11:28:37.933Z,26.20
2018-01-27T11:29:37.932Z,27.30
2018-01-27T11:30:37.925Z,26.30
2018-01-27T11:31:37.926Z,26.60
2018-01-27T11:32:37.916Z,25.80
2018-01-27T11:33:37.911Z,27.10
2018-01-27T11:34:37.905Z,23.80
2018-01-27T11:35:37.902Z,26.20
2018-01-27T11:36:37.896Z,29.30
2018-01-27T11:37:37.891Z,25.10
2018-01-27T11:38:37.887Z,28.20
2018-01-27T11:39:37.882Z,27.00
2018-01-27T11:40:37.879Z,24.90
2018-01-27T11:41:37.875Z,25.70
2018-01-27T11:42:37.878Z,26.40
2018-01-27T11:43:37.863Z,26.20
2018-01-27T11:44:37.859Z,23.00
2018-01-27T11:45:37.854Z,26.90
2018-01-27T11:46:37.849Z,26.60
2018-01-27T11:47:37.845Z,25.60
2018-01-27T11:48:37.839Z,26.10
2018-01-27T11:49:37.850Z,24.20
2018-01-27T11:50:37.830Z,26.30
2018-01-27T11:51:37.829Z,29.90
2018-01-27T11:52:37.821Z,24.90
2018-01-27T11:53:37.817Z,25.80
2018-01-27T11:54:37.814Z,24.50
2018-01-27T11:55:37.805Z,26.50
2018-01-27T11:56:37.802Z,25.00
2018-01-27T11:57:37.797Z,26.80
2018-01-27T11:58:37.798Z,25.80
2018-01-27T11:59:37.788Z,26.30
2018-01-27T12:00:37.783Z,25.80
2018-01-27T12:01:37.780Z,26.80
2018-01-27T12:02:37.772Z,25.40
2018-01-27T12:03:37.771Z,28.30
2018-01-27T12:04:37.761Z,27.30
2018-01-27T12:05:37.762Z,24.40
2018-01-27T12:06:37.805Z,27.30
2018-01-27T12:07:37.790Z,24.80
2018-01-27T12:08:37.746Z,26.30
2018-01-27T12:09:37.740Z,24.80
2018-01-27T12:10:37.735Z,26.50
2018-01-27T12:11:37.732Z,25.70
2018-01-27T12:12:37.728Z,28.50
2018-01-27T12:13:37.721Z,26.90
2018-01-27T12:14:37.717Z,25.60
2018-01-27T12:15:37.712Z,28.70
2018-01-27T12:16:37.714Z,26.20
2018-01-27T12:17:37.708Z,24.00
2018-01-27T12:18:37.698Z,26.60
2018-01-27T12:19:37.695Z,29.90
2018-01-27T12:20:37.690Z,27.30
2018-01-27T12:21:37.688Z,26.60
2018-01-27T12:22:37.679Z,24.70
2018-01-27T12:23:37.678Z,25.20
2018-01-27T12:24:37.675Z,27.00
2018-01-27T12:25:37.665Z,28.00
2018-01-27T12:26:37.661Z,26.10
2018-01-27T12:27:37.657Z,28.30
2018-01-27T12:28:37.655Z,27.90
2018-01-27T12:29:37.650Z,28.50
2018-01-27T12:30:37.643Z,25.80
2018-01-27T12:31:37.641Z,27.50
2018-01-27T12:32:37.636Z,27.70
2018-01-27T12:33:37.638Z,26.40
2018-01-27T12:34:37.630Z,27.10
2018-01-27T12:35:37.622Z,29.80
2018-01-27T12:36:37.617Z,26.30
2018-01-27T12:37:37.612Z,26.30
2018-01-27T12:38:37.609Z,25.60